^^
Station Historical Data
Daily Summary for January 4, 2018 Units:  English    Metric   Both
« Previous Day
Next Day »
Daily Weekly Monthly Yearly Custom
  High: Low: Average:
Temperature: TemperatureF °F 32.0 °F 39.8 °F
Dew Point: DewpointF °F 16.4 °F 25.9 °F
Humidity: Humidity% 34% 59%
Wind Speed: WindSpeedMPHmph 0.0mph 0mph
Wind Gust: WindSpeedGustMPHmph - -
Wind- - North
Pressure: PressureIn in 30.06 in -
Precipitation: 0.00 in    
Historical Graphs
 
 
Tabular Data for January 4, 2018
Time Temperature Dew Point Pressure Wind Wind Speed Wind Gust Humidity Rainfall Rate (Hourly) solar Conditions
TemperatureF °F DewpointF °F PressureIn in Calm     Humidity% HourlyPrecipIn in SolarRadiationWatts/m^2 W/m2 Conditions
00:00 36.0 °F 30.7 °F 30.08 in Calm     81% 0.00 in 0.0 W/m2 RA
00:10 36.0 °F 26.8 °F 30.07 in Calm     69% 0.00 in 0.0 W/m2 CLR
00:15 36.0 °F 26.8 °F 30.07 in Calm     69% 0.00 in 0.0 W/m2 CLR
00:25 36.0 °F 26.8 °F 30.07 in Calm     69% 0.00 in 0.0 W/m2 CLR
00:30 36.0 °F 26.8 °F 30.07 in Calm     69% 0.00 in 0.0 W/m2 CLR
00:40 36.0 °F 26.8 °F 30.07 in Calm     69% 0.00 in 0.0 W/m2 CLR
00:50 36.0 °F 26.8 °F 30.07 in Calm     69% 0.00 in 0.0 W/m2 CLR
01:00 36.0 °F 26.8 °F 30.07 in Calm     69% 0.00 in 0.0 W/m2 CLR
01:10 35.1 °F 28.9 °F 30.06 in Calm     78% 0.00 in 0.0 W/m2 CLR
01:15 35.1 °F 28.9 °F 30.06 in Calm     78% 0.00 in 0.0 W/m2 CLR
01:25 35.1 °F 28.9 °F 30.06 in Calm     78% 0.00 in 0.0 W/m2 CLR
01:30 35.1 °F 28.9 °F 30.06 in Calm     78% 0.00 in 0.0 W/m2 CLR
01:40 35.1 °F 28.9 °F 30.06 in Calm     78% 0.00 in 0.0 W/m2 CLR
01:45 35.1 °F 28.9 °F 30.06 in Calm     78% 0.00 in 0.0 W/m2 CLR
02:00 35.1 °F 28.9 °F 30.06 in Calm     78% 0.00 in 0.0 W/m2 CLR
02:10 34.0 °F 27.8 °F 30.06 in Calm     78% 0.00 in 0.0 W/m2 CLR
02:15 34.0 °F 27.8 °F 30.06 in Calm     78% 0.00 in 0.0 W/m2 CLR
02:20 34.0 °F 27.8 °F 30.06 in Calm     78% 0.00 in 0.0 W/m2 CLR
02:25 34.0 °F 27.8 °F 30.06 in Calm     78% 0.00 in 0.0 W/m2 CLR
02:30 34.0 °F 27.8 °F 30.06 in Calm     78% 0.00 in 0.0 W/m2 CLR
02:40 34.0 °F 27.8 °F 30.06 in Calm     78% 0.00 in 0.0 W/m2 CLR
02:45 34.0 °F 27.8 °F 30.06 in Calm     78% 0.00 in 0.0 W/m2 CLR
02:55 34.0 °F 27.8 °F 30.06 in Calm     78% 0.00 in 0.0 W/m2 CLR
03:00 34.0 °F 27.8 °F 30.06 in Calm     78% 0.00 in 0.0 W/m2 CLR
03:10 34.0 °F 26.9 °F 30.08 in Calm     75% 0.00 in 0.0 W/m2 CLR
03:15 34.0 °F 26.9 °F 30.08 in Calm     75% 0.00 in 0.0 W/m2 CLR
03:20 34.0 °F 26.9 °F 30.08 in Calm     75% 0.00 in 0.0 W/m2 CLR
03:25 34.0 °F 26.9 °F 30.08 in Calm     75% 0.00 in 0.0 W/m2 CLR
03:35 34.0 °F 26.9 °F 30.08 in Calm     75% 0.00 in 0.0 W/m2 CLR
03:40 34.0 °F 26.9 °F 30.08 in Calm     75% 0.00 in 0.0 W/m2 CLR
03:45 34.0 °F 26.9 °F 30.08 in Calm     75% 0.00 in 0.0 W/m2 CLR
03:50 34.0 °F 26.9 °F 30.08 in Calm     75% 0.00 in 0.0 W/m2 CLR
03:55 34.0 °F 26.9 °F 30.08 in Calm     75% 0.00 in 0.0 W/m2 CLR
04:05 33.1 °F 26.0 °F 30.08 in Calm     75% 0.00 in 0.0 W/m2 CLR
04:10 33.1 °F 26.0 °F 30.08 in Calm     75% 0.00 in 0.0 W/m2 CLR
04:15 33.1 °F 26.0 °F 30.08 in Calm     75% 0.00 in 0.0 W/m2 CLR
04:25 33.1 °F 26.0 °F 30.08 in Calm     75% 0.00 in 0.0 W/m2 CLR
04:30 33.1 °F 26.0 °F 30.08 in Calm     75% 0.00 in 0.0 W/m2 CLR
04:35 33.1 °F 26.0 °F 30.08 in Calm     75% 0.00 in 0.0 W/m2 CLR
04:40 33.1 °F 26.0 °F 30.08 in Calm     75% 0.00 in 0.0 W/m2 CLR
04:45 33.1 °F 26.0 °F 30.08 in Calm     75% 0.00 in 0.0 W/m2 CLR
04:55 33.1 °F 26.0 °F 30.08 in Calm     75% 0.00 in 0.0 W/m2 CLR
05:00 33.1 °F 26.0 °F 30.08 in Calm     75% 0.00 in 0.0 W/m2 CLR
05:15 32.0 °F 26.8 °F 30.10 in Calm     81% 0.00 in 0.0 W/m2 CLR
05:25 32.0 °F 26.8 °F 30.10 in Calm     81% 0.00 in 0.0 W/m2 CLR
05:30 32.0 °F 26.8 °F 30.10 in Calm     81% 0.00 in 0.0 W/m2 CLR
05:45 32.0 °F 26.8 °F 30.10 in Calm     81% 0.00 in 0.0 W/m2 CLR
05:55 32.0 °F 26.8 °F 30.10 in Calm     81% 0.00 in 0.0 W/m2 CLR
06:00 32.0 °F 26.8 °F 30.10 in Calm     81% 0.00 in 0.0 W/m2 CLR
06:10 33.1 °F 21.8 °F 30.11 in Calm     63% 0.00 in 0.0 W/m2 CLR
06:15 33.1 °F 21.8 °F 30.11 in Calm     63% 0.00 in 0.0 W/m2 CLR
06:20 33.1 °F 21.8 °F 30.11 in Calm     63% 0.00 in 0.0 W/m2 CLR
06:30 33.1 °F 21.8 °F 30.11 in Calm     63% 0.00 in 0.0 W/m2 CLR
06:40 33.1 °F 21.8 °F 30.11 in Calm     63% 0.00 in 0.0 W/m2 CLR
06:45 33.1 °F 21.8 °F 30.11 in Calm     63% 0.00 in 0.0 W/m2 CLR
06:55 33.1 °F 21.8 °F 30.11 in Calm     63% 0.00 in 0.0 W/m2 CLR
07:00 33.1 °F 21.8 °F 30.11 in Calm     63% 0.00 in 0.0 W/m2 CLR
07:15 33.1 °F 21.8 °F 30.13 in Calm     63% 0.00 in 0.0 W/m2 CLR
07:30 33.1 °F 21.8 °F 30.13 in Calm     63% 0.00 in 0.0 W/m2 CLR
07:40 33.1 °F 21.8 °F 30.13 in Calm     63% 0.00 in 0.0 W/m2 CLR
07:45 33.1 °F 21.8 °F 30.13 in Calm     63% 0.00 in 0.0 W/m2 CLR
07:55 33.1 °F 21.8 °F 30.13 in Calm     63% 0.00 in 0.0 W/m2 CLR
08:00 33.1 °F 21.8 °F 30.13 in Calm     63% 0.00 in 0.0 W/m2 CLR
08:15 34.0 °F 22.7 °F 30.15 in Calm     63% 0.00 in 0.0 W/m2 CLR
08:25 34.0 °F 22.7 °F 30.15 in Calm     63% 0.00 in 0.0 W/m2 CLR
08:30 34.0 °F 22.7 °F 30.15 in Calm     63% 0.00 in 0.0 W/m2 CLR
08:35 34.0 °F 22.7 °F 30.15 in Calm     63% 0.00 in 0.0 W/m2 CLR
08:40 34.0 °F 22.7 °F 30.15 in Calm     63% 0.00 in 0.0 W/m2 CLR
08:50 34.0 °F 22.7 °F 30.15 in Calm     63% 0.00 in 0.0 W/m2 CLR
08:55 34.0 °F 22.7 °F 30.15 in Calm     63% 0.00 in 0.0 W/m2 CLR
09:00 34.0 °F 22.7 °F 30.15 in Calm     63% 0.00 in 0.0 W/m2 CLR
09:10 37.9 °F 22.8 °F 30.16 in Calm     54% 0.00 in 0.0 W/m2 CLR
09:15 37.9 °F 22.8 °F 30.16 in Calm     54% 0.00 in 0.0 W/m2 CLR
09:25 37.9 °F 22.8 °F 30.16 in Calm     54% 0.00 in 0.0 W/m2 CLR
09:30 37.9 °F 22.8 °F 30.16 in Calm     54% 0.00 in 0.0 W/m2 CLR
09:45 37.9 °F 22.8 °F 30.16 in Calm     54% 0.00 in 0.0 W/m2 CLR
09:55 37.9 °F 22.8 °F 30.16 in Calm     54% 0.00 in 0.0 W/m2 CLR
10:00 37.9 °F 22.8 °F 30.16 in Calm     54% 0.00 in 0.0 W/m2 CLR
10:10 42.1 °F 16.4 °F 30.16 in Calm     35% 0.00 in 0.0 W/m2 CLR
10:15 42.1 °F 16.4 °F 30.16 in Calm     35% 0.00 in 0.0 W/m2 CLR
10:30 42.1 °F 16.4 °F 30.16 in Calm     35% 0.00 in 0.0 W/m2 CLR
10:40 42.1 °F 16.4 °F 30.16 in Calm     35% 0.00 in 0.0 W/m2 CLR
10:50 42.1 °F 16.4 °F 30.16 in Calm     35% 0.00 in 0.0 W/m2 CLR
11:00 42.1 °F 16.4 °F 30.16 in Calm     35% 0.00 in 0.0 W/m2 CLR
11:15 44.1 °F 17.4 °F 30.16 in Calm     34% 0.00 in 0.0 W/m2 CLR
11:25 44.1 °F 17.4 °F 30.16 in Calm     34% 0.00 in 0.0 W/m2 CLR
11:30 44.1 °F 17.4 °F 30.16 in Calm     34% 0.00 in 0.0 W/m2 CLR
11:35 44.1 °F 17.4 °F 30.16 in Calm     34% 0.00 in 0.0 W/m2 CLR
11:40 44.1 °F 17.4 °F 30.16 in Calm     34% 0.00 in 0.0 W/m2 CLR
11:45 44.1 °F 17.4 °F 30.16 in Calm     34% 0.00 in 0.0 W/m2 CLR
11:55 44.1 °F 17.4 °F 30.16 in Calm     34% 0.00 in 0.0 W/m2 CLR
12:05 46.0 °F 22.4 °F 30.15 in Calm     39% 0.00 in 0.0 W/m2 CLR
12:15 46.0 °F 22.4 °F 30.15 in Calm     39% 0.00 in 0.0 W/m2 CLR
12:35 46.0 °F 22.4 °F 30.15 in Calm     39% 0.00 in 0.0 W/m2 CLR
12:40 46.0 °F 22.4 °F 30.15 in Calm     39% 0.00 in 0.0 W/m2 CLR
12:45 46.0 °F 22.4 °F 30.15 in Calm     39% 0.00 in 0.0 W/m2 CLR
12:55 46.0 °F 22.4 °F 30.15 in Calm     39% 0.00 in 0.0 W/m2 CLR
13:00 46.0 °F 22.4 °F 30.15 in Calm     39% 0.00 in 0.0 W/m2 CLR
13:10 48.9 °F 23.8 °F 30.11 in Calm     37% 0.00 in 0.0 W/m2 CLR
13:20 48.9 °F 23.8 °F 30.11 in Calm     37% 0.00 in 0.0 W/m2 CLR
13:30 48.9 °F 23.8 °F 30.11 in Calm     37% 0.00 in 0.0 W/m2 CLR
13:35 48.9 °F 23.8 °F 30.11 in Calm     37% 0.00 in 0.0 W/m2 CLR
13:55 48.9 °F 23.8 °F 30.11 in Calm     37% 0.00 in 0.0 W/m2 CLR
14:10 50.0 °F 24.7 °F 30.09 in Calm     37% 0.00 in 0.0 W/m2 CLR
14:15 50.0 °F 24.7 °F 30.09 in Calm     37% 0.00 in 0.0 W/m2 CLR
14:20 50.0 °F 24.7 °F 30.09 in Calm     37% 0.00 in 0.0 W/m2 CLR
14:25 50.0 °F 24.7 °F 30.09 in Calm     37% 0.00 in 0.0 W/m2 CLR
14:30 50.0 °F 24.7 °F 30.09 in Calm     37% 0.00 in 0.0 W/m2 CLR
14:40 50.0 °F 24.7 °F 30.09 in Calm     37% 0.00 in 0.0 W/m2 CLR
14:50 50.0 °F 24.7 °F 30.09 in Calm     37% 0.00 in 0.0 W/m2 CLR
15:00 50.0 °F 24.7 °F 30.09 in Calm     37% 0.00 in 0.0 W/m2 CLR
15:25 52.0 °F 26.5 °F 30.08 in Calm     37% 0.00 in 0.0 W/m2 CLR
15:30 52.0 °F 26.5 °F 30.08 in Calm     37% 0.00 in 0.0 W/m2 CLR
15:45 52.0 °F 26.5 °F 30.08 in Calm     37% 0.00 in 0.0 W/m2 CLR
16:50 52.0 °F 26.5 °F 30.08 in Calm     37% 0.00 in 0.0 W/m2 CLR
17:15 51.1 °F 27.6 °F 30.10 in Calm     40% 0.00 in 0.0 W/m2 CLR
17:20 51.1 °F 27.6 °F 30.10 in Calm     40% 0.00 in 0.0 W/m2 CLR
17:35 51.1 °F 27.6 °F 30.10 in Calm     40% 0.00 in 0.0 W/m2 CLR
17:45 51.1 °F 27.6 °F 30.10 in Calm     40% 0.00 in 0.0 W/m2 CLR
18:00 51.1 °F 27.6 °F 30.10 in Calm     40% 0.00 in 0.0 W/m2 CLR
18:10 48.0 °F 29.7 °F 30.12 in Calm     49% 0.00 in 0.0 W/m2 CLR
18:15 48.0 °F 29.7 °F 30.12 in Calm     49% 0.00 in 0.0 W/m2 CLR
18:25 48.0 °F 29.7 °F 30.12 in Calm     49% 0.00 in 0.0 W/m2 CLR
18:30 48.0 °F 29.7 °F 30.12 in Calm     49% 0.00 in 0.0 W/m2 CLR
18:40 48.0 °F 29.7 °F 30.12 in Calm     49% 0.00 in 0.0 W/m2 CLR
18:45 48.0 °F 29.7 °F 30.12 in Calm     49% 0.00 in 0.0 W/m2 CLR
19:05 46.0 °F 30.8 °F 30.14 in Calm     55% 0.00 in 0.0 W/m2 CLR
19:10 46.0 °F 30.8 °F 30.14 in Calm     55% 0.00 in 0.0 W/m2 CLR
19:15 46.0 °F 30.8 °F 30.14 in Calm     55% 0.00 in 0.0 W/m2 CLR
19:20 46.0 °F 30.8 °F 30.14 in Calm     55% 0.00 in 0.0 W/m2 CLR
19:30 46.0 °F 30.8 °F 30.14 in Calm     55% 0.00 in 0.0 W/m2 CLR
19:45 46.0 °F 30.8 °F 30.14 in Calm     55% 0.00 in 0.0 W/m2 CLR
19:55 46.0 °F 30.8 °F 30.14 in Calm     55% 0.00 in 0.0 W/m2 CLR
20:00 46.0 °F 30.8 °F 30.14 in Calm     55% 0.00 in 0.0 W/m2 CLR
20:10 44.1 °F 31.9 °F 30.17 in Calm     62% 0.00 in 0.0 W/m2 CLR
20:15 44.1 °F 31.9 °F 30.17 in Calm     62% 0.00 in 0.0 W/m2 CLR
20:30 44.1 °F 31.9 °F 30.17 in Calm     62% 0.00 in 0.0 W/m2 CLR
20:45 44.1 °F 31.9 °F 30.17 in Calm     62% 0.00 in 0.0 W/m2 CLR
20:55 44.1 °F 31.9 °F 30.17 in Calm     62% 0.00 in 0.0 W/m2 CLR
21:15 43.0 °F 33.9 °F 30.17 in Calm     70% 0.00 in 0.0 W/m2 CLR
21:35 43.0 °F 33.9 °F 30.17 in Calm     70% 0.00 in 0.0 W/m2 CLR
21:40 43.0 °F 33.9 °F 30.17 in Calm     70% 0.00 in 0.0 W/m2 CLR
21:45 43.0 °F 33.9 °F 30.17 in Calm     70% 0.00 in 0.0 W/m2 CLR
21:55 43.0 °F 33.9 °F 30.17 in Calm     70% 0.00 in 0.0 W/m2 CLR
22:05 42.1 °F 33.7 °F 30.19 in Calm     72% 0.00 in 0.0 W/m2 CLR
22:10 42.1 °F 33.7 °F 30.19 in Calm     72% 0.00 in 0.0 W/m2 CLR
22:20 42.1 °F 33.7 °F 30.19 in Calm     72% 0.00 in 0.0 W/m2 CLR
22:30 42.1 °F 33.7 °F 30.19 in Calm     72% 0.00 in 0.0 W/m2 CLR
22:35 42.1 °F 33.7 °F 30.19 in Calm     72% 0.00 in 0.0 W/m2 CLR
22:40 42.1 °F 33.7 °F 30.19 in Calm     72% 0.00 in 0.0 W/m2 CLR
22:45 42.1 °F 33.7 °F 30.19 in Calm     72% 0.00 in 0.0 W/m2 CLR
22:55 42.1 °F 33.7 °F 30.19 in Calm     72% 0.00 in 0.0 W/m2 CLR
23:00 42.1 °F 33.7 °F 30.19 in Calm     72% 0.00 in 0.0 W/m2 CLR
23:20 41.0 °F 29.7 °F 30.23 in Calm     64% 0.00 in 0.0 W/m2 CLR
23:30 41.0 °F 29.7 °F 30.23 in Calm     64% 0.00 in 0.0 W/m2 CLR
23:40 41.0 °F 29.7 °F 30.23 in Calm     64% 0.00 in 0.0 W/m2 CLR
23:50 41.0 °F 29.7 °F 30.23 in Calm     64% 0.00 in 0.0 W/m2 CLR
23:55 41.0 °F 29.7 °F 30.23 in Calm     64% 0.00 in 0.0 W/m2 CLR
Lake Mary, FL, USA
Compliments of Weather Underground - 1.5 mb